createdAt,value
2023-05-04T00:00:43.254Z,97007.22
2023-05-04T00:03:10.219Z,97007.53
2023-05-04T00:05:36.869Z,97003.84
2023-05-04T00:08:03.263Z,97008.41
2023-05-04T00:10:29.618Z,97000.09
2023-05-04T00:12:56.036Z,97001.69
2023-05-04T00:15:22.823Z,97000.09
2023-05-04T00:17:49.209Z,97005.81
2023-05-04T00:20:15.686Z,97000.81
2023-05-04T00:22:42.036Z,97002.38
2023-05-04T00:25:09.756Z,97005.03
2023-05-04T00:27:36.297Z,97002.56
2023-05-04T00:30:03.251Z,96997.53
2023-05-04T00:32:30.863Z,97001.28
2023-05-04T00:34:57.301Z,96996.34
2023-05-04T00:37:23.676Z,96998.50
2023-05-04T00:39:50.050Z,97001.88
2023-05-04T00:42:16.687Z,97005.03
2023-05-04T00:44:44.589Z,96994.16
2023-05-04T00:47:12.524Z,96994.75
2023-05-04T00:49:39.623Z,96994.47
2023-05-04T00:52:06.196Z,97000.88
2023-05-04T00:54:33.504Z,96992.28
2023-05-04T00:56:59.878Z,96997.63
2023-05-04T00:59:26.284Z,96990.78
2023-05-04T01:01:52.688Z,96993.75
2023-05-04T01:04:19.477Z,96996.94
2023-05-04T01:06:58.209Z,96993.34
2023-05-04T01:09:42.812Z,96997.72
2023-05-04T01:12:34.878Z,96995.06
2023-05-04T01:15:02.951Z,96995.66
2023-05-04T01:17:29.539Z,96993.16
2023-05-04T01:19:55.910Z,96988.94
2023-05-04T01:22:23.002Z,96996.13
2023-05-04T01:24:50.587Z,96990.59
2023-05-04T01:27:20.744Z,96990.31
2023-05-04T01:30:05.863Z,96996.13
2023-05-04T01:32:33.216Z,96997.81
2023-05-04T01:35:00.431Z,96992.16
2023-05-04T01:37:27.000Z,96990.41
2023-05-04T01:39:53.361Z,96995.13
2023-05-04T01:42:19.921Z,96995.13
2023-05-04T01:44:46.542Z,96992.75
2023-05-04T01:47:12.884Z,97000.75
2023-05-04T01:49:39.308Z,96991.47
2023-05-04T01:52:05.687Z,96992.84
2023-05-04T01:54:32.085Z,96999.47
2023-05-04T01:56:58.430Z,96995.22
2023-05-04T01:59:24.848Z,96994.72
2023-05-04T02:01:51.365Z,96991.66
2023-05-04T02:04:17.775Z,96986.03
2023-05-04T02:06:44.158Z,96989.38
2023-05-04T02:09:10.601Z,96989.19
2023-05-04T02:11:36.998Z,96994.53
2023-05-04T02:14:04.298Z,96996.38
2023-05-04T02:16:31.455Z,96989.97
2023-05-04T02:18:57.908Z,96987.41
2023-05-04T02:21:24.294Z,96992.75
2023-05-04T02:23:50.666Z,96990.84
2023-05-04T02:26:17.087Z,96989.56
2023-05-04T02:28:43.494Z,96993.63
2023-05-04T02:31:09.994Z,96993.34
2023-05-04T02:33:36.409Z,96986.13
2023-05-04T02:36:02.916Z,96990.34
2023-05-04T02:38:29.378Z,96991.72
2023-05-04T02:40:55.806Z,96988.34
2023-05-04T02:43:22.157Z,96988.66
2023-05-04T02:45:48.556Z,96988.66
2023-05-04T02:48:14.956Z,96977.47
2023-05-04T02:50:41.532Z,96984.97
2023-05-04T02:53:07.885Z,96983.88
2023-05-04T02:55:34.319Z,96983.59
2023-05-04T02:58:01.138Z,96979.72
2023-05-04T03:00:27.601Z,96974.47
2023-05-04T03:02:54.081Z,96980.31
2023-05-04T03:05:20.486Z,96977.63
2023-05-04T03:07:46.889Z,96981.38
2023-05-04T03:10:13.366Z,96975.06
2023-05-04T03:12:39.724Z,96971.53
2023-05-04T03:15:06.887Z,96970.16
2023-05-04T03:17:33.265Z,96976.03
2023-05-04T03:19:59.752Z,96976.84
2023-05-04T03:22:26.279Z,96965.47
2023-05-04T03:24:52.633Z,96968.03
2023-05-04T03:27:19.006Z,96962.44
2023-05-04T03:29:45.369Z,96961.66
2023-05-04T03:32:13.108Z,96963.44
2023-05-04T03:34:39.721Z,96964.81
2023-05-04T03:37:06.057Z,96963.81
2023-05-04T03:39:32.414Z,96965.38
2023-05-04T03:41:58.758Z,96977.13
2023-05-04T03:44:25.179Z,96967.06
2023-05-04T03:46:51.504Z,96959.75
2023-05-04T03:49:17.846Z,96961.31
2023-05-04T03:51:44.211Z,96963.38
2023-05-04T03:54:10.728Z,96961.50
2023-05-04T03:56:37.084Z,96963.38
2023-05-04T03:59:03.468Z,96966.56
2023-05-04T04:01:29.900Z,96966.56
2023-05-04T04:03:56.470Z,96966.56
2023-05-04T04:06:22.944Z,96968.13
2023-05-04T04:08:49.331Z,96964.47
2023-05-04T04:11:15.736Z,96967.16
2023-05-04T04:13:42.074Z,96965.84
2023-05-04T04:16:08.455Z,96966.63
2023-05-04T04:18:35.047Z,96966.63
2023-05-04T04:21:01.537Z,96969.09
2023-05-04T04:23:27.897Z,96968.22
2023-05-04T04:25:54.345Z,96960.28
2023-05-04T04:28:21.232Z,96962.19
2023-05-04T04:30:48.098Z,96970.47
2023-05-04T04:33:15.061Z,96971.53
2023-05-04T04:35:41.643Z,96966.72
2023-05-04T04:38:08.043Z,96970.47
2023-05-04T04:40:34.508Z,96967.31
2023-05-04T04:43:00.876Z,96964.72
2023-05-04T04:45:27.403Z,96961.47
2023-05-04T04:47:53.823Z,96965.44
2023-05-04T04:50:20.342Z,96963.53
2023-05-04T04:52:46.667Z,96969.78
2023-05-04T04:55:13.374Z,96974.78
2023-05-04T04:57:39.754Z,96967.09
2023-05-04T05:00:15.725Z,96969.47
2023-05-04T05:02:42.294Z,96985.47
2023-05-04T05:05:09.282Z,96966.28
2023-05-04T05:07:36.310Z,96973.34
2023-05-04T05:10:03.268Z,96975.00
2023-05-04T05:12:29.875Z,96977.97
2023-05-04T05:14:56.316Z,96983.31
2023-05-04T05:17:22.882Z,96987.25
2023-05-04T05:19:49.965Z,96981.63
2023-05-04T05:22:16.539Z,96979.53
2023-05-04T05:24:42.884Z,96977.38
2023-05-04T05:27:09.719Z,96980.56
2023-05-04T05:29:37.010Z,96988.47
2023-05-04T05:32:04.343Z,96989.53
2023-05-04T05:34:31.280Z,96986.41
2023-05-04T05:36:58.209Z,96988.25
2023-05-04T05:39:24.609Z,96984.78
2023-05-04T05:41:51.027Z,96986.41
2023-05-04T05:44:17.403Z,96982.81
2023-05-04T05:46:43.993Z,96994.78
2023-05-04T05:49:10.469Z,96991.56
2023-05-04T05:51:36.861Z,96989.88
2023-05-04T05:54:03.340Z,96989.59
2023-05-04T05:56:29.709Z,96991.69
2023-05-04T05:58:56.385Z,96984.69
2023-05-04T06:01:22.766Z,96986.25
2023-05-04T06:03:49.277Z,96987.28
2023-05-04T06:06:16.766Z,96985.66
2023-05-04T06:08:43.110Z,96984.81
2023-05-04T06:11:09.480Z,96987.50
2023-05-04T06:13:35.825Z,96988.59
2023-05-04T06:16:02.199Z,96986.19
2023-05-04T06:18:28.582Z,96983.25
2023-05-04T06:20:59.498Z,96988.00
2023-05-04T06:23:28.670Z,96980.69
2023-05-04T06:25:55.138Z,96992.56
2023-05-04T06:28:21.658Z,96985.53
2023-05-04T06:30:48.420Z,96981.72
2023-05-04T06:33:15.072Z,96987.63
2023-05-04T06:35:42.048Z,96980.69
2023-05-04T06:38:08.391Z,96986.03
2023-05-04T06:40:34.787Z,96987.25
2023-05-04T06:43:01.208Z,96996.53
2023-05-04T06:45:27.706Z,96990.31
2023-05-04T06:47:54.192Z,96984.66
2023-05-04T06:50:20.746Z,96987.44
2023-05-04T06:52:47.107Z,96994.19
2023-05-04T06:55:13.888Z,96985.66
2023-05-04T06:57:40.468Z,96993.38
2023-05-04T07:00:08.254Z,96994.56
2023-05-04T07:02:34.690Z,96994.66
2023-05-04T07:05:02.057Z,96993.19
2023-05-04T07:07:28.402Z,96995.94
2023-05-04T07:09:54.750Z,96999.78
2023-05-04T07:12:21.258Z,96999.28
2023-05-04T07:14:47.604Z,96998.88
2023-05-04T07:17:14.188Z,96996.94
2023-05-04T07:19:40.617Z,96995.13
2023-05-04T07:22:07.283Z,96994.72
2023-05-04T07:24:33.643Z,96995.56
2023-05-04T07:27:00.107Z,96991.59
2023-05-04T07:29:26.499Z,96990.19
2023-05-04T07:31:52.909Z,96995.09
2023-05-04T07:34:20.152Z,96997.06
2023-05-04T07:36:46.713Z,96996.94
2023-05-04T07:39:13.385Z,97005.69
2023-05-04T07:41:39.743Z,96999.59
2023-05-04T07:44:08.417Z,96994.13
2023-05-04T07:46:34.792Z,96991.34
2023-05-04T07:49:01.248Z,96992.75
2023-05-04T07:51:27.593Z,96993.72
2023-05-04T07:53:53.960Z,96991.88
2023-05-04T07:56:20.388Z,96993.41
2023-05-04T07:58:47.449Z,96983.06
2023-05-04T08:01:13.809Z,96983.06
2023-05-04T08:03:40.212Z,96986.06
2023-05-04T08:06:08.136Z,96983.69
2023-05-04T08:08:34.485Z,96991.72
2023-05-04T08:11:15.925Z,96980.91
2023-05-04T08:13:46.452Z,96986.06
2023-05-04T08:16:13.357Z,96983.19
2023-05-04T08:18:39.743Z,96979.91
2023-05-04T08:21:06.556Z,96973.94
2023-05-04T08:23:33.525Z,96982.31
2023-05-04T08:26:04.144Z,96983.59
2023-05-04T08:28:37.802Z,96983.88
2023-05-04T08:31:04.199Z,96983.06
2023-05-04T08:33:31.856Z,96987.88
2023-05-04T08:35:58.357Z,96986.94
2023-05-04T08:38:24.720Z,96983.06
2023-05-04T08:40:52.572Z,96977.09
2023-05-04T08:43:18.960Z,96979.34
2023-05-04T08:45:45.529Z,96977.00
2023-05-04T08:48:13.838Z,96983.16
2023-05-04T08:50:40.211Z,96974.84
2023-05-04T08:53:11.136Z,96978.97
2023-05-04T08:55:39.736Z,96981.03
2023-05-04T08:58:11.485Z,96977.72
2023-05-04T09:00:39.080Z,96972.16
2023-05-04T09:03:07.651Z,96972.16
2023-05-04T09:05:34.808Z,96973.84
2023-05-04T09:08:01.462Z,96970.56
2023-05-04T09:10:29.676Z,96967.91
2023-05-04T09:12:56.521Z,96969.72
2023-05-04T09:15:24.057Z,96965.97
2023-05-04T09:18:05.286Z,96962.34
2023-05-04T09:20:43.873Z,96964.28
2023-05-04T09:23:11.774Z,96959.13
2023-05-04T09:25:52.276Z,96963.28
2023-05-04T09:28:21.463Z,96966.25
2023-05-04T09:30:48.992Z,96956.34
2023-05-04T09:33:16.411Z,96958.06
2023-05-04T09:35:44.528Z,96962.81
2023-05-04T09:38:10.986Z,96953.97
2023-05-04T09:40:42.052Z,96950.34
2023-05-04T09:43:09.539Z,96953.97
2023-05-04T09:45:43.810Z,96952.41
2023-05-04T09:48:27.029Z,96952.63
2023-05-04T09:50:59.122Z,96947.41
2023-05-04T09:53:30.584Z,96946.13
2023-05-04T09:56:10.991Z,96943.13
2023-05-04T09:58:38.108Z,96947.84
2023-05-04T10:01:04.981Z,96945.38
2023-05-04T10:03:32.042Z,96945.22
2023-05-04T10:06:02.571Z,96943.53
2023-05-04T10:08:29.244Z,96939.28
2023-05-04T10:10:56.993Z,96940.84
2023-05-04T10:13:24.595Z,96939.28
2023-05-04T10:16:24.866Z,96931.25
2023-05-04T10:19:10.180Z,96930.75
2023-05-04T10:21:55.839Z,96934.25
2023-05-04T10:24:28.292Z,96927.63
2023-05-04T10:27:08.057Z,96931.06
2023-05-04T10:29:35.166Z,96915.44
2023-05-04T10:32:02.009Z,96917.38
2023-05-04T10:34:33.082Z,96922.75
2023-05-04T10:37:01.257Z,96903.03
2023-05-04T10:39:34.051Z,96911.22
2023-05-04T10:42:01.929Z,96905.25
2023-05-04T10:44:29.268Z,96905.53
2023-05-04T10:47:06.719Z,96898.47
2023-05-04T10:49:34.744Z,96900.50
2023-05-04T10:52:19.511Z,96899.06
2023-05-04T10:54:46.762Z,96899.03
2023-05-04T10:57:16.462Z,96889.41
2023-05-04T10:59:53.746Z,96895.56
2023-05-04T11:02:24.504Z,96879.41
2023-05-04T11:05:09.452Z,96877.81
2023-05-04T11:07:38.092Z,96871.00
2023-05-04T11:10:06.600Z,96876.38
2023-05-04T11:12:33.093Z,96869.63
2023-05-04T11:15:06.999Z,96874.00
2023-05-04T11:17:33.767Z,96858.66
2023-05-04T11:20:01.049Z,96858.78
2023-05-04T11:22:28.067Z,96854.66
2023-05-04T11:24:56.106Z,96862.34
2023-05-04T11:27:28.728Z,96863.59
2023-05-04T11:30:00.851Z,96852.91
2023-05-04T11:32:39.214Z,96853.06
2023-05-04T11:35:09.791Z,96853.06
2023-05-04T11:37:40.605Z,96843.72
2023-05-04T11:40:19.201Z,96842.28
2023-05-04T11:42:46.856Z,96836.44
2023-05-04T11:45:17.805Z,96831.97
2023-05-04T11:47:45.471Z,96836.72
2023-05-04T11:50:14.058Z,96834.94
2023-05-04T11:52:41.452Z,96824.34
2023-05-04T11:55:09.603Z,96830.31
2023-05-04T11:57:37.622Z,96822.50
2023-05-04T12:00:06.079Z,96829.94
2023-05-04T12:02:33.423Z,96817.13
2023-05-04T12:05:00.656Z,96821.88
2023-05-04T12:07:27.878Z,96817.97
2023-05-04T12:09:54.795Z,96810.47
2023-05-04T12:12:21.413Z,96819.69
2023-05-04T12:14:52.085Z,96815.25
2023-05-04T12:17:20.314Z,96806.72
2023-05-04T12:19:50.907Z,96810.81
2023-05-04T12:22:17.977Z,96810.16
2023-05-04T12:24:44.364Z,96803.59
2023-05-04T12:27:14.654Z,96801.88
2023-05-04T12:29:41.253Z,96804.72
2023-05-04T12:32:08.113Z,96796.97
2023-05-04T12:34:34.601Z,96794.81
2023-05-04T12:37:00.995Z,96789.63
2023-05-04T12:39:29.329Z,96792.72
2023-05-04T12:41:55.682Z,96796.50
2023-05-04T12:44:22.171Z,96794.03
2023-05-04T12:46:48.578Z,96781.38
2023-05-04T12:49:14.893Z,96781.81
2023-05-04T12:51:41.376Z,96784.84
2023-05-04T12:54:07.760Z,96785.75
2023-05-04T12:56:34.556Z,96782.63
2023-05-04T12:59:01.346Z,96785.63
2023-05-04T13:01:27.741Z,96783.97
2023-05-04T13:03:54.177Z,96774.47
2023-05-04T13:06:20.569Z,96778.94
2023-05-04T13:08:47.311Z,96779.75
2023-05-04T13:11:15.659Z,96777.22
2023-05-04T13:13:42.707Z,96778.19
2023-05-04T13:16:09.248Z,96765.44
2023-05-04T13:18:35.688Z,96767.91
2023-05-04T13:21:02.069Z,96761.88
2023-05-04T13:23:28.439Z,96758.03
2023-05-04T13:25:54.876Z,96756.03
2023-05-04T13:28:21.306Z,96750.44
2023-05-04T13:30:48.232Z,96740.72
2023-05-04T13:33:28.214Z,96739.69
2023-05-04T13:35:57.867Z,96736.31
2023-05-04T13:38:24.756Z,96739.31
2023-05-04T13:40:51.418Z,96728.88
2023-05-04T13:43:17.772Z,96728.00
2023-05-04T13:45:44.282Z,96725.31
2023-05-04T13:48:10.695Z,96725.78
2023-05-04T13:50:37.582Z,96725.09
2023-05-04T13:53:04.200Z,96718.13
2023-05-04T13:55:30.661Z,96719.72
2023-05-04T13:57:57.069Z,96716.47
2023-05-04T14:00:23.474Z,96704.88
2023-05-04T14:02:50.059Z,96703.63
2023-05-04T14:05:16.616Z,96707.31
2023-05-04T14:07:43.114Z,96703.38
2023-05-04T14:10:09.903Z,96698.69
2023-05-04T14:12:36.262Z,96706.06
2023-05-04T14:15:02.714Z,96700.25
2023-05-04T14:17:29.110Z,96698.78
2023-05-04T14:19:56.069Z,96699.56
2023-05-04T14:22:22.519Z,96694.41
2023-05-04T14:24:49.345Z,96701.03
2023-05-04T14:27:15.800Z,96696.63
2023-05-04T14:29:42.126Z,96685.78
2023-05-04T14:32:08.509Z,96684.22
2023-05-04T14:34:36.041Z,96686.44
2023-05-04T14:37:02.543Z,96692.59
2023-05-04T14:39:28.917Z,96688.00
2023-05-04T14:41:57.050Z,96685.22
2023-05-04T14:44:24.707Z,96689.81
2023-05-04T14:46:51.111Z,96689.47
2023-05-04T14:49:28.766Z,96687.53
2023-05-04T14:52:03.726Z,96684.22
2023-05-04T14:54:30.136Z,96686.56
2023-05-04T14:56:56.478Z,96681.06
2023-05-04T14:59:22.861Z,96681.31
2023-05-04T15:01:50.048Z,96674.56
2023-05-04T15:04:17.008Z,96678.72
2023-05-04T15:06:43.367Z,96673.78
2023-05-04T15:09:09.735Z,96670.31
2023-05-04T15:11:36.627Z,96679.16
2023-05-04T15:14:03.347Z,96676.47
2023-05-04T15:16:32.309Z,96665.94
2023-05-04T15:18:59.369Z,96665.94
2023-05-04T15:21:26.022Z,96665.16
2023-05-04T15:23:52.354Z,96658.88
2023-05-04T15:26:19.095Z,96658.13
2023-05-04T15:28:45.483Z,96649.13
2023-05-04T15:31:12.931Z,96660.56
2023-05-04T15:33:39.477Z,96660.00
2023-05-04T15:36:07.987Z,96658.28
2023-05-04T15:38:34.837Z,96662.69
2023-05-04T15:41:01.202Z,96658.63
2023-05-04T15:43:27.555Z,96663.47
2023-05-04T15:45:54.001Z,96664.09
2023-05-04T15:48:20.836Z,96666.53
2023-05-04T15:50:47.351Z,96669.22
2023-05-04T15:53:13.796Z,96670.00
2023-05-04T15:55:40.233Z,96676.31
2023-05-04T15:58:07.181Z,96676.31
2023-05-04T16:00:34.338Z,96676.97
2023-05-04T16:03:01.303Z,96679.88
2023-05-04T16:05:27.808Z,96681.09
2023-05-04T16:07:54.476Z,96680.44
2023-05-04T16:10:22.139Z,96679.75
2023-05-04T16:12:48.666Z,96681.41
2023-05-04T16:15:15.473Z,96675.00
2023-05-04T16:17:42.087Z,96683.53
2023-05-04T16:20:09.197Z,96685.09
2023-05-04T16:22:35.813Z,96676.81
2023-05-04T16:25:02.363Z,96690.25
2023-05-04T16:27:28.901Z,96679.50
2023-05-04T16:29:55.658Z,96681.84
2023-05-04T16:32:22.735Z,96682.50
2023-05-04T16:34:49.310Z,96686.63
2023-05-04T16:37:17.312Z,96689.88
2023-05-04T16:39:43.713Z,96690.50
2023-05-04T16:42:10.095Z,96688.03
2023-05-04T16:44:36.521Z,96691.72
2023-05-04T16:47:02.870Z,96691.56
2023-05-04T16:49:29.806Z,96696.16
2023-05-04T16:51:56.276Z,96692.22
2023-05-04T16:54:23.990Z,96694.44
2023-05-04T16:56:50.617Z,96696.56
2023-05-04T16:59:17.052Z,96698.00
2023-05-04T17:01:43.984Z,96698.66
2023-05-04T17:04:10.986Z,96694.59
2023-05-04T17:06:37.779Z,96695.13
2023-05-04T17:09:04.712Z,96701.13
2023-05-04T17:11:31.755Z,96696.44
2023-05-04T17:13:58.826Z,96698.16
2023-05-04T17:16:25.346Z,96701.03
2023-05-04T17:18:51.707Z,96701.22
2023-05-04T17:21:18.144Z,96704.09
2023-05-04T17:23:44.515Z,96707.28
2023-05-04T17:26:10.954Z,96709.81
2023-05-04T17:28:37.335Z,96711.25
2023-05-04T17:31:03.723Z,96715.72
2023-05-04T17:33:30.443Z,96710.97
2023-05-04T17:35:57.201Z,96716.50
2023-05-04T17:38:23.556Z,96715.25
2023-05-04T17:40:49.920Z,96721.75
2023-05-04T17:43:16.302Z,96728.53
2023-05-04T17:45:42.759Z,96721.44
2023-05-04T17:48:09.264Z,96729.84
2023-05-04T17:50:35.680Z,96723.53
2023-05-04T17:53:02.040Z,96719.13
2023-05-04T17:55:28.514Z,96722.94
2023-05-04T17:57:54.964Z,96723.56
2023-05-04T18:00:21.690Z,96719.16
2023-05-04T18:02:48.212Z,96730.19
2023-05-04T18:05:14.637Z,96733.84
2023-05-04T18:07:41.017Z,96732.44
2023-05-04T18:10:08.027Z,96731.19
2023-05-04T18:12:35.583Z,96731.81
2023-05-04T18:15:03.724Z,96731.34
2023-05-04T18:17:30.294Z,96737.31
2023-05-04T18:19:56.661Z,96737.97
2023-05-04T18:22:22.995Z,96741.28
2023-05-04T18:24:49.757Z,96749.63
2023-05-04T18:27:16.388Z,96752.16
2023-05-04T18:29:42.893Z,96757.69
2023-05-04T18:32:10.619Z,96758.34
2023-05-04T18:34:37.637Z,96770.78
2023-05-04T18:37:04.001Z,96777.41
2023-05-04T18:39:31.324Z,96775.97
2023-05-04T18:42:00.625Z,96777.09
2023-05-04T18:44:27.079Z,96781.03
2023-05-04T18:46:53.436Z,96787.00
2023-05-04T18:49:19.801Z,96784.66
2023-05-04T18:51:46.216Z,96788.88
2023-05-04T18:54:14.840Z,96789.97
2023-05-04T18:56:41.195Z,96791.25
2023-05-04T18:59:07.710Z,96787.28
2023-05-04T19:01:34.141Z,96801.94
2023-05-04T19:04:00.918Z,96805.56
2023-05-04T19:06:27.378Z,96804.78
2023-05-04T19:08:53.916Z,96813.09
2023-05-04T19:11:20.344Z,96809.34
2023-05-04T19:13:46.656Z,96815.16
2023-05-04T19:16:13.248Z,96816.25
2023-05-04T19:18:39.954Z,96820.34
2023-05-04T19:21:07.004Z,96831.97
2023-05-04T19:23:34.150Z,96826.97
2023-05-04T19:26:00.834Z,96834.50
2023-05-04T19:28:27.321Z,96836.69
2023-05-04T19:30:54.032Z,96840.63
2023-05-04T19:33:20.578Z,96837.91
2023-05-04T19:35:47.025Z,96837.88
2023-05-04T19:38:13.390Z,96844.63
2023-05-04T19:40:42.186Z,96847.00
2023-05-04T19:43:09.234Z,96852.97
2023-05-04T19:45:35.800Z,96849.31
2023-05-04T19:48:04.705Z,96859.38
2023-05-04T19:50:31.187Z,96868.31
2023-05-04T19:52:57.640Z,96872.09
2023-05-04T19:55:24.024Z,96865.16
2023-05-04T19:57:50.478Z,96864.22
2023-05-04T20:00:19.262Z,96870.75
2023-05-04T20:02:46.747Z,96876.94
2023-05-04T20:05:13.683Z,96876.72
2023-05-04T20:07:40.670Z,96872.78
2023-05-04T20:10:08.211Z,96872.63
2023-05-04T20:12:34.976Z,96875.09
2023-05-04T20:15:01.642Z,96883.94
2023-05-04T20:17:28.165Z,96879.50
2023-05-04T20:19:54.718Z,96882.78
2023-05-04T20:22:21.149Z,96873.50
2023-05-04T20:24:47.586Z,96880.41
2023-05-04T20:27:13.965Z,96883.19
2023-05-04T20:29:40.318Z,96882.41
2023-05-04T20:32:07.254Z,96888.06
2023-05-04T20:34:33.906Z,96891.34
2023-05-04T20:37:00.447Z,96889.66
2023-05-04T20:39:26.799Z,96891.34
2023-05-04T20:41:53.174Z,96894.13
2023-05-04T20:44:19.567Z,96882.38
2023-05-04T20:46:46.037Z,96893.34
2023-05-04T20:49:12.523Z,96886.72
2023-05-04T20:51:38.939Z,96885.63
2023-05-04T20:54:05.328Z,96887.84
2023-05-04T20:56:31.785Z,96893.06
2023-05-04T20:58:58.118Z,96889.88
2023-05-04T21:01:24.716Z,96895.03
2023-05-04T21:03:52.122Z,96891.56
2023-05-04T21:06:18.670Z,96889.41
2023-05-04T21:08:44.990Z,96884.19
2023-05-04T21:11:11.377Z,96890.31
2023-05-04T21:13:37.724Z,96889.13
2023-05-04T21:16:04.369Z,96886.50
2023-05-04T21:18:30.855Z,96889.16
2023-05-04T21:20:57.345Z,96900.25
2023-05-04T21:23:24.943Z,96890.50
2023-05-04T21:25:59.737Z,96894.06
2023-05-04T21:28:26.160Z,96892.47
2023-05-04T21:30:52.532Z,96895.75
2023-05-04T21:33:18.919Z,96893.69
2023-05-04T21:35:45.452Z,96896.97
2023-05-04T21:38:12.788Z,96891.72
2023-05-04T21:40:39.203Z,96885.56
2023-05-04T21:43:05.772Z,96885.34
2023-05-04T21:45:32.899Z,96887.03
2023-05-04T21:48:02.252Z,96887.72
2023-05-04T21:50:28.674Z,96888.50
2023-05-04T21:52:55.159Z,96890.06
2023-05-04T21:55:21.604Z,96896.03
2023-05-04T21:57:47.930Z,96895.13
2023-05-04T22:00:18.124Z,96890.50
2023-05-04T22:02:44.932Z,96893.19
2023-05-04T22:05:11.522Z,96896.97
2023-05-04T22:07:37.996Z,96893.50
2023-05-04T22:10:04.923Z,96901.81
2023-05-04T22:12:31.516Z,96898.16
2023-05-04T22:14:57.864Z,96897.06
2023-05-04T22:17:24.215Z,96903.69
2023-05-04T22:19:50.583Z,96906.19
2023-05-04T22:22:16.961Z,96908.47
2023-05-04T22:24:43.299Z,96908.75
2023-05-04T22:27:09.654Z,96912.50
2023-05-04T22:29:36.076Z,96910.63
2023-05-04T22:32:02.761Z,96912.19
2023-05-04T22:34:29.151Z,96919.63
2023-05-04T22:36:56.031Z,96917.75
2023-05-04T22:39:22.415Z,96915.88
2023-05-04T22:41:48.765Z,96914.50
2023-05-04T22:44:15.226Z,96914.00
2023-05-04T22:46:41.742Z,96916.69
2023-05-04T22:49:08.133Z,96917.84
2023-05-04T22:51:34.544Z,96909.38
2023-05-04T22:54:00.966Z,96913.72
2023-05-04T22:56:27.360Z,96912.94
2023-05-04T22:58:53.694Z,96917.25
2023-05-04T23:01:20.085Z,96928.53
2023-05-04T23:03:46.643Z,96921.72
2023-05-04T23:06:13.204Z,96922.41
2023-05-04T23:08:39.763Z,96922.78
2023-05-04T23:11:06.525Z,96919.66
2023-05-04T23:13:32.902Z,96924.06
2023-05-04T23:15:59.276Z,96923.97
2023-05-04T23:18:25.649Z,96925.97
2023-05-04T23:20:52.280Z,96930.50
2023-05-04T23:23:18.644Z,96927.34
2023-05-04T23:25:44.975Z,96929.50
2023-05-04T23:28:11.356Z,96926.28
2023-05-04T23:30:37.707Z,96929.91
2023-05-04T23:33:04.210Z,96922.88
2023-05-04T23:35:30.719Z,96922.59
2023-05-04T23:37:57.026Z,96919.84
2023-05-04T23:40:23.361Z,96922.00
2023-05-04T23:42:50.504Z,96923.88
2023-05-04T23:45:17.002Z,96923.88
2023-05-04T23:47:43.396Z,96925.19
2023-05-04T23:50:10.362Z,96926.19
2023-05-04T23:52:36.905Z,96929.31
2023-05-04T23:55:03.697Z,96924.59
2023-05-04T23:57:30.025Z,96923.50
2023-05-04T23:59:56.370Z,96917.69
